Terminal Aerodrome Forecast
Issued by NWS

Home | Current Version | Previous Version | Text Only | Print | Product List | Glossary On
Versions: 1 2 3 4 5 6 7 8 9 10 11 12 13 14 15 16 17 18 19 20
000
FTUS43 KABR 301700
TAFPIR
TAF
KPIR 301728Z 3018/3118 18009KT P6SM BKN250
     FM302300 33008KT P6SM OVC200
     FM311000 03009KT P6SM OVC025
     FM311400 05014KT P6SM OVC020=

USA.gov is the U.S. government's official web portal to all federal, state and local government web resources and services.